Devils Lake Regional Airport

Airport
ICAO code: 
KDVL
Summary
ICAO Region: 
NAM
Territory: 
Location: 
Devils Lake, North Dakota,
Elevation: 
1456 ft
Coordinates: 
Aerial View: 
48° 6' 51.001" N, 98° 54' 30.999" W
Airport CFIT: 
Altimeter Temperature Error Correction
Airport RE: 
Landing on Contaminated Runways
Airport WX: 
Cumulonimbus
Metar
Observation
KDVL 021456Z AUTO 33004KT 10SM CLR M01/M03 A2990 RMK AO2 SLP709 T10111028 50013 FZRANO
Station
Devils Lake, Devils Lake Municipal Airport
Date/Time
2021-12-02 14:56:00
Wind direction
330°
Wind speed
04 kts
Lowest cloud amount
n/a
Temperature
-1.1°C
Dew point
-2.8°C
Humidity
88%
Weather condition
n/a

Description

Devils Lake Regional Airport is a public use airport located 4 km west of the central business district of Devils Lake, a city in Ramsey County, North Dakota.

Climatology

Humid Continental climate (Köppen climate classification Dfb) - Variable weather patterns and a large seasonal temperature variance. Summers are often warm and humid with frequent thunderstorms and winters can be very cold with frequent snowfall and persistent snow cover.

Runways

Designator Length Width Surface Rops
3/21 1315 23 ASP Yes/Yes
13/31 1679 46 ASP Yes/Yes
Airport map: 
Aerial View: 

SKYbrary Partners:

Safety knowledge contributed by: